sensor_id;sensor_type;location;lat;lon;timestamp;temperature;humidity
1476;DHT22;730;48.870;12.542;2023-07-29T00:01:36;19.20;8.30
1476;DHT22;730;48.870;12.542;2023-07-29T00:04:02;19.10;8.90
1476;DHT22;730;48.870;12.542;2023-07-29T00:06:29;19.00;9.40
1476;DHT22;730;48.870;12.542;2023-07-29T00:08:55;19.00;10.00
1476;DHT22;730;48.870;12.542;2023-07-29T00:11:21;19.00;9.70
1476;DHT22;730;48.870;12.542;2023-07-29T00:13:47;19.00;9.50
1476;DHT22;730;48.870;12.542;2023-07-29T00:16:16;19.00;10.20
1476;DHT22;730;48.870;12.542;2023-07-29T00:18:43;18.90;10.30
1476;DHT22;730;48.870;12.542;2023-07-29T00:21:10;19.00;10.20
1476;DHT22;730;48.870;12.542;2023-07-29T00:23:36;19.10;9.80
1476;DHT22;730;48.870;12.542;2023-07-29T00:26:02;19.10;9.70
1476;DHT22;730;48.870;12.542;2023-07-29T00:28:28;19.20;9.30
1476;DHT22;730;48.870;12.542;2023-07-29T00:30:54;19.30;9.10
1476;DHT22;730;48.870;12.542;2023-07-29T00:33:25;19.30;8.80
1476;DHT22;730;48.870;12.542;2023-07-29T00:35:51;19.30;8.50
1476;DHT22;730;48.870;12.542;2023-07-29T00:38:17;19.30;8.30
1476;DHT22;730;48.870;12.542;2023-07-29T00:40:43;19.40;8.00
1476;DHT22;730;48.870;12.542;2023-07-29T00:43:09;19.40;7.60
1476;DHT22;730;48.870;12.542;2023-07-29T00:45:35;19.30;7.70
1476;DHT22;730;48.870;12.542;2023-07-29T00:48:02;19.30;8.10
1476;DHT22;730;48.870;12.542;2023-07-29T00:50:30;19.30;8.50
1476;DHT22;730;48.870;12.542;2023-07-29T00:52:57;19.30;8.40
1476;DHT22;730;48.870;12.542;2023-07-29T00:55:23;19.30;8.30
1476;DHT22;730;48.870;12.542;2023-07-29T00:57:51;19.30;8.00
1476;DHT22;730;48.870;12.542;2023-07-29T01:00:21;19.30;8.00
1476;DHT22;730;48.870;12.542;2023-07-29T01:02:47;19.30;7.70
1476;DHT22;730;48.870;12.542;2023-07-29T01:05:15;19.30;7.50
1476;DHT22;730;48.870;12.542;2023-07-29T01:07:55;19.20;7.90
1476;DHT22;730;48.870;12.542;2023-07-29T01:13:19;19.20;7.90
1476;DHT22;730;48.870;12.542;2023-07-29T01:18:20;19.30;7.70
1476;DHT22;730;48.870;12.542;2023-07-29T01:20:48;19.30;7.50
1476;DHT22;730;48.870;12.542;2023-07-29T01:23:16;19.30;7.60
1476;DHT22;730;48.870;12.542;2023-07-29T01:25:42;19.20;8.10
1476;DHT22;730;48.870;12.542;2023-07-29T01:28:08;19.20;8.20
1476;DHT22;730;48.870;12.542;2023-07-29T01:30:39;19.10;8.30
1476;DHT22;730;48.870;12.542;2023-07-29T01:33:26;19.20;8.30
1476;DHT22;730;48.870;12.542;2023-07-29T01:35:58;19.10;8.70
1476;DHT22;730;48.870;12.542;2023-07-29T01:38:35;19.00;8.90
1476;DHT22;730;48.870;12.542;2023-07-29T01:41:03;19.10;9.20
1476;DHT22;730;48.870;12.542;2023-07-29T01:43:30;19.10;9.50
1476;DHT22;730;48.870;12.542;2023-07-29T01:45:56;19.10;9.30
1476;DHT22;730;48.870;12.542;2023-07-29T01:48:23;19.00;9.90
1476;DHT22;730;48.870;12.542;2023-07-29T01:50:49;18.90;10.30
1476;DHT22;730;48.870;12.542;2023-07-29T01:53:15;19.00;10.20
1476;DHT22;730;48.870;12.542;2023-07-29T01:55:41;19.10;9.70
1476;DHT22;730;48.870;12.542;2023-07-29T01:58:08;19.00;10.10
1476;DHT22;730;48.870;12.542;2023-07-29T02:00:34;19.00;10.10
1476;DHT22;730;48.870;12.542;2023-07-29T02:03:00;19.00;10.10
1476;DHT22;730;48.870;12.542;2023-07-29T02:05:28;19.00;10.10
1476;DHT22;730;48.870;12.542;2023-07-29T02:07:55;19.00;10.00
1476;DHT22;730;48.870;12.542;2023-07-29T02:10:21;19.10;9.90
1476;DHT22;730;48.870;12.542;2023-07-29T02:12:47;19.00;9.80
1476;DHT22;730;48.870;12.542;2023-07-29T02:15:13;19.00;9.90
1476;DHT22;730;48.870;12.542;2023-07-29T02:17:41;18.90;10.60
1476;DHT22;730;48.870;12.542;2023-07-29T02:20:08;18.90;10.60
1476;DHT22;730;48.870;12.542;2023-07-29T02:22:34;18.90;10.30
1476;DHT22;730;48.870;12.542;2023-07-29T02:25:00;19.00;9.90
1476;DHT22;730;48.870;12.542;2023-07-29T02:27:26;19.10;9.60
1476;DHT22;730;48.870;12.542;2023-07-29T02:29:55;19.10;9.20
1476;DHT22;730;48.870;12.542;2023-07-29T02:32:22;19.10;9.00
1476;DHT22;730;48.870;12.542;2023-07-29T02:34:48;19.20;8.60
1476;DHT22;730;48.870;12.542;2023-07-29T02:37:14;19.20;8.30
1476;DHT22;730;48.870;12.542;2023-07-29T02:39:40;19.20;7.90
1476;DHT22;730;48.870;12.542;2023-07-29T02:42:06;19.30;7.60
1476;DHT22;730;48.870;12.542;2023-07-29T02:44:32;19.30;7.20
1476;DHT22;730;48.870;12.542;2023-07-29T02:46:59;19.30;6.80
1476;DHT22;730;48.870;12.542;2023-07-29T02:49:25;19.30;6.80
1476;DHT22;730;48.870;12.542;2023-07-29T02:51:51;19.30;6.60
1476;DHT22;730;48.870;12.542;2023-07-29T02:54:17;19.30;6.40
1476;DHT22;730;48.870;12.542;2023-07-29T02:56:43;19.30;6.20
1476;DHT22;730;48.870;12.542;2023-07-29T02:59:09;19.30;5.90
1476;DHT22;730;48.870;12.542;2023-07-29T03:01:35;19.30;5.80
1476;DHT22;730;48.870;12.542;2023-07-29T03:04:01;19.30;5.80
1476;DHT22;730;48.870;12.542;2023-07-29T03:06:27;19.30;5.50
1476;DHT22;730;48.870;12.542;2023-07-29T03:08:53;19.30;5.10
1476;DHT22;730;48.870;12.542;2023-07-29T03:11:19;19.20;5.10
1476;DHT22;730;48.870;12.542;2023-07-29T03:13:45;19.20;5.30
1476;DHT22;730;48.870;12.542;2023-07-29T03:16:17;19.20;5.50
1476;DHT22;730;48.870;12.542;2023-07-29T03:18:44;19.20;5.50
1476;DHT22;730;48.870;12.542;2023-07-29T03:21:11;19.10;5.60
1476;DHT22;730;48.870;12.542;2023-07-29T03:23:38;19.10;5.50
1476;DHT22;730;48.870;12.542;2023-07-29T03:26:04;19.10;5.40
1476;DHT22;730;48.870;12.542;2023-07-29T03:28:40;19.10;5.30
1476;DHT22;730;48.870;12.542;2023-07-29T03:31:07;19.10;5.10
1476;DHT22;730;48.870;12.542;2023-07-29T03:33:33;19.10;5.10
1476;DHT22;730;48.870;12.542;2023-07-29T03:36:00;19.00;5.10
1476;DHT22;730;48.870;12.542;2023-07-29T03:38:26;19.00;5.10
1476;DHT22;730;48.870;12.542;2023-07-29T03:40:52;19.00;5.10
1476;DHT22;730;48.870;12.542;2023-07-29T03:43:19;19.00;5.30
1476;DHT22;730;48.870;12.542;2023-07-29T03:45:45;19.00;5.30
1476;DHT22;730;48.870;12.542;2023-07-29T03:48:11;18.90;5.40
1476;DHT22;730;48.870;12.542;2023-07-29T03:50:37;18.90;5.60
1476;DHT22;730;48.870;12.542;2023-07-29T03:53:03;18.90;6.00
1476;DHT22;730;48.870;12.542;2023-07-29T03:55:30;18.80;6.40
1476;DHT22;730;48.870;12.542;2023-07-29T03:58:03;18.80;6.60
1476;DHT22;730;48.870;12.542;2023-07-29T04:00:33;18.70;6.90
1476;DHT22;730;48.870;12.542;2023-07-29T04:03:14;18.60;7.20
1476;DHT22;730;48.870;12.542;2023-07-29T04:05:42;18.60;7.20
1476;DHT22;730;48.870;12.542;2023-07-29T04:08:09;18.60;7.40
1476;DHT22;730;48.870;12.542;2023-07-29T04:10:35;18.60;7.40
1476;DHT22;730;48.870;12.542;2023-07-29T04:13:02;18.50;7.40
1476;DHT22;730;48.870;12.542;2023-07-29T04:15:28;18.50;7.20
1476;DHT22;730;48.870;12.542;2023-07-29T04:17:57;18.50;6.90
1476;DHT22;730;48.870;12.542;2023-07-29T04:20:23;18.40;7.50
1476;DHT22;730;48.870;12.542;2023-07-29T04:22:49;18.50;7.70
1476;DHT22;730;48.870;12.542;2023-07-29T04:25:15;18.40;8.00
1476;DHT22;730;48.870;12.542;2023-07-29T04:27:42;18.40;8.10
1476;DHT22;730;48.870;12.542;2023-07-29T04:30:08;18.40;8.40
1476;DHT22;730;48.870;12.542;2023-07-29T04:32:35;18.40;8.80
1476;DHT22;730;48.870;12.542;2023-07-29T04:35:01;18.40;9.20
1476;DHT22;730;48.870;12.542;2023-07-29T04:37:27;18.30;9.70
1476;DHT22;730;48.870;12.542;2023-07-29T04:39:53;18.30;10.00
1476;DHT22;730;48.870;12.542;2023-07-29T04:42:19;18.40;10.20
1476;DHT22;730;48.870;12.542;2023-07-29T04:44:45;18.40;10.50
1476;DHT22;730;48.870;12.542;2023-07-29T04:47:11;18.40;10.70
1476;DHT22;730;48.870;12.542;2023-07-29T04:49:37;18.40;10.60
1476;DHT22;730;48.870;12.542;2023-07-29T04:52:03;18.50;11.00
1476;DHT22;730;48.870;12.542;2023-07-29T04:54:29;18.50;11.50
1476;DHT22;730;48.870;12.542;2023-07-29T04:56:55;18.60;11.00
1476;DHT22;730;48.870;12.542;2023-07-29T04:59:21;18.60;11.10
1476;DHT22;730;48.870;12.542;2023-07-29T05:01:47;18.70;11.50
1476;DHT22;730;48.870;12.542;2023-07-29T05:04:13;18.70;11.50
1476;DHT22;730;48.870;12.542;2023-07-29T05:06:40;18.80;11.70
1476;DHT22;730;48.870;12.542;2023-07-29T05:09:16;18.80;11.50
1476;DHT22;730;48.870;12.542;2023-07-29T05:11:43;18.90;11.30
1476;DHT22;730;48.870;12.542;2023-07-29T05:14:13;19.10;11.40
1476;DHT22;730;48.870;12.542;2023-07-29T05:16:40;19.20;11.50
1476;DHT22;730;48.870;12.542;2023-07-29T05:19:06;19.40;10.60
1476;DHT22;730;48.870;12.542;2023-07-29T05:21:33;19.40;8.80
1476;DHT22;730;48.870;12.542;2023-07-29T05:24:00;19.60;8.00
1476;DHT22;730;48.870;12.542;2023-07-29T05:26:26;19.70;7.70
1476;DHT22;730;48.870;12.542;2023-07-29T05:28:52;19.80;6.60
1476;DHT22;730;48.870;12.542;2023-07-29T05:31:18;20.00;6.00
1476;DHT22;730;48.870;12.542;2023-07-29T05:33:44;20.20;5.30
1476;DHT22;730;48.870;12.542;2023-07-29T05:36:10;20.40;4.20
1476;DHT22;730;48.870;12.542;2023-07-29T05:38:36;20.60;3.40
1476;DHT22;730;48.870;12.542;2023-07-29T05:41:02;20.90;2.70
1476;DHT22;730;48.870;12.542;2023-07-29T05:43:28;21.10;1.00
1476;DHT22;730;48.870;12.542;2023-07-29T05:45:54;21.20;1.00
1476;DHT22;730;48.870;12.542;2023-07-29T05:48:20;21.50;1.00
1476;DHT22;730;48.870;12.542;2023-07-29T05:50:46;21.70;1.00
1476;DHT22;730;48.870;12.542;2023-07-29T05:53:13;22.00;1.00
1476;DHT22;730;48.870;12.542;2023-07-29T05:55:39;22.10;1.00
1476;DHT22;730;48.870;12.542;2023-07-29T05:58:05;22.40;1.00
1476;DHT22;730;48.870;12.542;2023-07-29T06:00:31;22.60;1.00
1476;DHT22;730;48.870;12.542;2023-07-29T06:02:57;22.80;1.00
1476;DHT22;730;48.870;12.542;2023-07-29T06:05:23;23.00;1.00
1476;DHT22;730;48.870;12.542;2023-07-29T06:07:49;23.30;1.00
1476;DHT22;730;48.870;12.542;2023-07-29T06:10:16;23.50;1.00
1476;DHT22;730;48.870;12.542;2023-07-29T06:12:45;23.70;1.00
1476;DHT22;730;48.870;12.542;2023-07-29T06:15:11;23.90;1.00
1476;DHT22;730;48.870;12.542;2023-07-29T06:17:38;24.10;1.00
1476;DHT22;730;48.870;12.542;2023-07-29T06:20:04;24.30;1.00
1476;DHT22;730;48.870;12.542;2023-07-29T06:22:31;24.50;1.00
1476;DHT22;730;48.870;12.542;2023-07-29T06:24:57;24.70;1.00
1476;DHT22;730;48.870;12.542;2023-07-29T06:27:24;24.90;1.00
1476;DHT22;730;48.870;12.542;2023-07-29T06:29:51;25.00;1.00
1476;DHT22;730;48.870;12.542;2023-07-29T06:32:17;25.00;1.00
1476;DHT22;730;48.870;12.542;2023-07-29T06:34:43;25.10;1.00
1476;DHT22;730;48.870;12.542;2023-07-29T06:37:09;25.20;1.00
1476;DHT22;730;48.870;12.542;2023-07-29T06:39:35;25.20;1.00
1476;DHT22;730;48.870;12.542;2023-07-29T06:42:01;25.20;1.00
1476;DHT22;730;48.870;12.542;2023-07-29T06:44:27;25.30;1.00
1476;DHT22;730;48.870;12.542;2023-07-29T06:46:53;25.30;1.00
1476;DHT22;730;48.870;12.542;2023-07-29T06:49:19;25.30;1.00
1476;DHT22;730;48.870;12.542;2023-07-29T06:51:45;25.20;1.00
1476;DHT22;730;48.870;12.542;2023-07-29T06:54:11;25.20;1.00
1476;DHT22;730;48.870;12.542;2023-07-29T06:56:37;25.10;1.00
1476;DHT22;730;48.870;12.542;2023-07-29T06:59:05;25.10;1.00
1476;DHT22;730;48.870;12.542;2023-07-29T07:01:31;25.10;1.00
1476;DHT22;730;48.870;12.542;2023-07-29T07:03:57;25.10;1.00
1476;DHT22;730;48.870;12.542;2023-07-29T07:06:24;25.10;1.00
1476;DHT22;730;48.870;12.542;2023-07-29T07:08:51;25.10;1.00
1476;DHT22;730;48.870;12.542;2023-07-29T07:11:18;25.00;1.00
1476;DHT22;730;48.870;12.542;2023-07-29T07:13:44;25.00;1.00
1476;DHT22;730;48.870;12.542;2023-07-29T07:16:10;25.00;1.00
1476;DHT22;730;48.870;12.542;2023-07-29T07:18:39;25.10;1.00
1476;DHT22;730;48.870;12.542;2023-07-29T07:21:05;25.20;1.00
1476;DHT22;730;48.870;12.542;2023-07-29T07:23:31;25.30;1.00
1476;DHT22;730;48.870;12.542;2023-07-29T07:25:57;25.40;1.00
1476;DHT22;730;48.870;12.542;2023-07-29T07:28:23;25.40;1.00
1476;DHT22;730;48.870;12.542;2023-07-29T07:30:49;25.50;1.00
1476;DHT22;730;48.870;12.542;2023-07-29T07:33:15;25.60;1.00
1476;DHT22;730;48.870;12.542;2023-07-29T07:35:41;25.60;1.00
1476;DHT22;730;48.870;12.542;2023-07-29T07:38:08;25.60;1.00
1476;DHT22;730;48.870;12.542;2023-07-29T07:40:36;25.70;1.00
1476;DHT22;730;48.870;12.542;2023-07-29T07:43:02;25.80;1.00
1476;DHT22;730;48.870;12.542;2023-07-29T07:45:28;25.80;1.00
1476;DHT22;730;48.870;12.542;2023-07-29T07:47:54;25.80;1.00
1476;DHT22;730;48.870;12.542;2023-07-29T07:50:20;25.80;1.00
1476;DHT22;730;48.870;12.542;2023-07-29T07:52:46;25.80;1.00
1476;DHT22;730;48.870;12.542;2023-07-29T07:55:12;25.80;1.00
1476;DHT22;730;48.870;12.542;2023-07-29T07:57:38;25.80;1.00
1476;DHT22;730;48.870;12.542;2023-07-29T08:00:05;25.80;1.00
1476;DHT22;730;48.870;12.542;2023-07-29T08:02:32;25.90;1.00
1476;DHT22;730;48.870;12.542;2023-07-29T08:04:58;25.80;1.00
1476;DHT22;730;48.870;12.542;2023-07-29T08:07:29;25.80;1.00
1476;DHT22;730;48.870;12.542;2023-07-29T08:09:55;25.80;1.00
1476;DHT22;730;48.870;12.542;2023-07-29T08:12:21;25.80;1.00
1476;DHT22;730;48.870;12.542;2023-07-29T08:14:47;25.80;1.00
1476;DHT22;730;48.870;12.542;2023-07-29T08:17:13;25.90;1.00
1476;DHT22;730;48.870;12.542;2023-07-29T08:19:40;26.10;1.00
1476;DHT22;730;48.870;12.542;2023-07-29T08:22:06;26.10;1.00
1476;DHT22;730;48.870;12.542;2023-07-29T08:24:32;26.20;1.00
1476;DHT22;730;48.870;12.542;2023-07-29T08:26:58;26.20;1.00
1476;DHT22;730;48.870;12.542;2023-07-29T08:29:24;25.70;1.00
1476;DHT22;730;48.870;12.542;2023-07-29T08:31:50;25.30;1.00
1476;DHT22;730;48.870;12.542;2023-07-29T08:34:17;24.80;1.00
1476;DHT22;730;48.870;12.542;2023-07-29T08:36:44;24.60;1.00
1476;DHT22;730;48.870;12.542;2023-07-29T08:39:10;24.30;1.00
1476;DHT22;730;48.870;12.542;2023-07-29T08:42:09;24.00;1.00
1476;DHT22;730;48.870;12.542;2023-07-29T08:44:42;23.80;1.00
1476;DHT22;730;48.870;12.542;2023-07-29T08:47:08;23.70;1.00
1476;DHT22;730;48.870;12.542;2023-07-29T08:49:36;23.40;1.00
1476;DHT22;730;48.870;12.542;2023-07-29T08:52:04;23.50;1.00
1476;DHT22;730;48.870;12.542;2023-07-29T08:54:30;23.60;1.00
1476;DHT22;730;48.870;12.542;2023-07-29T08:56:57;23.60;1.00
1476;DHT22;730;48.870;12.542;2023-07-29T08:59:23;23.50;1.00
1476;DHT22;730;48.870;12.542;2023-07-29T09:01:50;23.50;1.00
1476;DHT22;730;48.870;12.542;2023-07-29T09:04:18;23.50;1.00
1476;DHT22;730;48.870;12.542;2023-07-29T09:06:46;23.50;1.00
1476;DHT22;730;48.870;12.542;2023-07-29T09:09:13;23.40;1.00
1476;DHT22;730;48.870;12.542;2023-07-29T09:11:39;23.20;1.00
1476;DHT22;730;48.870;12.542;2023-07-29T09:14:05;23.10;1.00
1476;DHT22;730;48.870;12.542;2023-07-29T09:16:32;23.00;1.00
1476;DHT22;730;48.870;12.542;2023-07-29T09:19:01;22.80;1.00
1476;DHT22;730;48.870;12.542;2023-07-29T09:21:28;22.70;1.00
1476;DHT22;730;48.870;12.542;2023-07-29T09:23:55;22.40;1.00
1476;DHT22;730;48.870;12.542;2023-07-29T09:26:28;22.30;1.00
1476;DHT22;730;48.870;12.542;2023-07-29T09:28:55;22.10;1.00
1476;DHT22;730;48.870;12.542;2023-07-29T09:31:23;22.10;1.00
1476;DHT22;730;48.870;12.542;2023-07-29T09:33:50;22.20;1.00
1476;DHT22;730;48.870;12.542;2023-07-29T09:36:16;22.20;1.00
1476;DHT22;730;48.870;12.542;2023-07-29T09:38:44;22.20;1.00
1476;DHT22;730;48.870;12.542;2023-07-29T09:41:13;22.30;1.00
1476;DHT22;730;48.870;12.542;2023-07-29T09:43:40;22.40;1.00
1476;DHT22;730;48.870;12.542;2023-07-29T09:46:06;22.40;1.00
1476;DHT22;730;48.870;12.542;2023-07-29T09:48:37;22.40;1.00
1476;DHT22;730;48.870;12.542;2023-07-29T09:51:10;22.50;1.00
1476;DHT22;730;48.870;12.542;2023-07-29T09:53:47;22.50;1.00
1476;DHT22;730;48.870;12.542;2023-07-29T09:56:16;22.60;1.00
1476;DHT22;730;48.870;12.542;2023-07-29T09:58:45;22.70;1.00
1476;DHT22;730;48.870;12.542;2023-07-29T10:01:11;22.80;1.00
1476;DHT22;730;48.870;12.542;2023-07-29T10:03:38;22.80;1.00
1476;DHT22;730;48.870;12.542;2023-07-29T10:06:06;22.90;1.00
1476;DHT22;730;48.870;12.542;2023-07-29T10:08:33;23.10;1.00
1476;DHT22;730;48.870;12.542;2023-07-29T10:11:02;23.30;1.00
1476;DHT22;730;48.870;12.542;2023-07-29T10:13:28;23.50;1.00
1476;DHT22;730;48.870;12.542;2023-07-29T10:15:54;23.70;1.00
1476;DHT22;730;48.870;12.542;2023-07-29T10:18:22;23.80;1.00
1476;DHT22;730;48.870;12.542;2023-07-29T10:20:52;24.10;1.00
1476;DHT22;730;48.870;12.542;2023-07-29T10:23:21;24.30;1.00
1476;DHT22;730;48.870;12.542;2023-07-29T10:26:05;24.60;1.00
1476;DHT22;730;48.870;12.542;2023-07-29T10:28:32;25.00;1.00
1476;DHT22;730;48.870;12.542;2023-07-29T10:30:59;25.20;1.00
1476;DHT22;730;48.870;12.542;2023-07-29T10:33:26;25.40;1.00
1476;DHT22;730;48.870;12.542;2023-07-29T10:35:53;25.60;1.00
1476;DHT22;730;48.870;12.542;2023-07-29T10:38:22;25.60;1.00
1476;DHT22;730;48.870;12.542;2023-07-29T10:40:53;25.70;1.00
1476;DHT22;730;48.870;12.542;2023-07-29T10:43:27;25.50;1.00
1476;DHT22;730;48.870;12.542;2023-07-29T10:45:55;25.40;1.00
1476;DHT22;730;48.870;12.542;2023-07-29T10:51:34;25.30;1.00
1476;DHT22;730;48.870;12.542;2023-07-29T10:54:03;25.30;1.00
1476;DHT22;730;48.870;12.542;2023-07-29T10:56:34;25.20;1.00
1476;DHT22;730;48.870;12.542;2023-07-29T11:01:56;25.10;1.00
1476;DHT22;730;48.870;12.542;2023-07-29T11:04:24;25.00;1.00
1476;DHT22;730;48.870;12.542;2023-07-29T11:15:25;25.30;1.00
1476;DHT22;730;48.870;12.542;2023-07-29T11:17:56;25.20;1.00
1476;DHT22;730;48.870;12.542;2023-07-29T11:20:32;25.30;1.00
1476;DHT22;730;48.870;12.542;2023-07-29T11:23:00;25.50;1.00
1476;DHT22;730;48.870;12.542;2023-07-29T11:25:28;25.60;1.00
1476;DHT22;730;48.870;12.542;2023-07-29T11:27:56;25.70;1.00
1476;DHT22;730;48.870;12.542;2023-07-29T11:30:23;25.60;1.00
1476;DHT22;730;48.870;12.542;2023-07-29T11:32:49;25.60;1.00
1476;DHT22;730;48.870;12.542;2023-07-29T11:35:17;25.70;1.00
1476;DHT22;730;48.870;12.542;2023-07-29T11:37:45;25.60;1.00
1476;DHT22;730;48.870;12.542;2023-07-29T11:40:15;25.60;1.00
1476;DHT22;730;48.870;12.542;2023-07-29T11:42:41;25.60;1.00
1476;DHT22;730;48.870;12.542;2023-07-29T11:45:07;25.40;1.00
1476;DHT22;730;48.870;12.542;2023-07-29T11:47:34;25.30;1.00
1476;DHT22;730;48.870;12.542;2023-07-29T11:50:05;25.40;1.00
1476;DHT22;730;48.870;12.542;2023-07-29T11:52:33;25.50;1.00
1476;DHT22;730;48.870;12.542;2023-07-29T11:55:01;25.80;1.00
1476;DHT22;730;48.870;12.542;2023-07-29T11:57:28;26.10;1.00
1476;DHT22;730;48.870;12.542;2023-07-29T11:59:55;26.30;1.00
1476;DHT22;730;48.870;12.542;2023-07-29T12:02:23;26.50;1.00
1476;DHT22;730;48.870;12.542;2023-07-29T12:04:49;26.70;1.00
1476;DHT22;730;48.870;12.542;2023-07-29T12:07:18;26.90;1.00
1476;DHT22;730;48.870;12.542;2023-07-29T12:09:46;26.70;1.00
1476;DHT22;730;48.870;12.542;2023-07-29T12:12:12;26.70;1.00
1476;DHT22;730;48.870;12.542;2023-07-29T12:14:38;26.70;1.00
1476;DHT22;730;48.870;12.542;2023-07-29T12:17:11;26.70;1.00
1476;DHT22;730;48.870;12.542;2023-07-29T12:19:38;26.70;1.00
1476;DHT22;730;48.870;12.542;2023-07-29T12:22:06;26.80;1.00
1476;DHT22;730;48.870;12.542;2023-07-29T12:24:38;26.90;1.00
1476;DHT22;730;48.870;12.542;2023-07-29T12:27:05;26.90;1.00
1476;DHT22;730;48.870;12.542;2023-07-29T12:29:32;26.80;1.00
1476;DHT22;730;48.870;12.542;2023-07-29T12:32:05;26.90;1.00
1476;DHT22;730;48.870;12.542;2023-07-29T12:34:31;27.00;1.00
1476;DHT22;730;48.870;12.542;2023-07-29T12:36:58;27.20;1.00
1476;DHT22;730;48.870;12.542;2023-07-29T12:39:26;26.70;1.00
1476;DHT22;730;48.870;12.542;2023-07-29T12:41:55;26.50;1.00
1476;DHT22;730;48.870;12.542;2023-07-29T12:44:40;26.60;1.00
1476;DHT22;730;48.870;12.542;2023-07-29T12:47:06;26.80;1.00
1476;DHT22;730;48.870;12.542;2023-07-29T12:49:32;26.80;1.00
1476;DHT22;730;48.870;12.542;2023-07-29T12:51:59;26.90;1.00
1476;DHT22;730;48.870;12.542;2023-07-29T12:54:25;27.10;1.00
1476;DHT22;730;48.870;12.542;2023-07-29T12:56:51;27.50;1.00
1476;DHT22;730;48.870;12.542;2023-07-29T12:59:18;27.80;1.00
1476;DHT22;730;48.870;12.542;2023-07-29T13:01:44;28.20;1.00
1476;DHT22;730;48.870;12.542;2023-07-29T13:04:10;28.50;1.00
1476;DHT22;730;48.870;12.542;2023-07-29T13:06:36;28.80;1.00
1476;DHT22;730;48.870;12.542;2023-07-29T13:09:02;29.10;1.00
1476;DHT22;730;48.870;12.542;2023-07-29T13:11:29;29.40;1.00
1476;DHT22;730;48.870;12.542;2023-07-29T13:13:55;29.60;1.00
1476;DHT22;730;48.870;12.542;2023-07-29T13:16:21;29.40;1.00
1476;DHT22;730;48.870;12.542;2023-07-29T13:18:47;29.60;1.00
1476;DHT22;730;48.870;12.542;2023-07-29T13:21:13;29.90;1.00
1476;DHT22;730;48.870;12.542;2023-07-29T13:23:39;30.20;1.00
1476;DHT22;730;48.870;12.542;2023-07-29T13:26:05;30.30;1.00
1476;DHT22;730;48.870;12.542;2023-07-29T13:28:31;30.40;1.00
1476;DHT22;730;48.870;12.542;2023-07-29T13:30:57;30.20;1.00
1476;DHT22;730;48.870;12.542;2023-07-29T13:33:23;29.60;1.00
1476;DHT22;730;48.870;12.542;2023-07-29T13:35:49;29.30;1.00
1476;DHT22;730;48.870;12.542;2023-07-29T13:38:16;29.20;1.00
1476;DHT22;730;48.870;12.542;2023-07-29T13:40:42;29.30;1.00
1476;DHT22;730;48.870;12.542;2023-07-29T13:43:08;29.50;1.00
1476;DHT22;730;48.870;12.542;2023-07-29T13:45:34;29.70;1.00
1476;DHT22;730;48.870;12.542;2023-07-29T13:48:00;29.90;1.00
1476;DHT22;730;48.870;12.542;2023-07-29T13:50:36;30.00;1.00
1476;DHT22;730;48.870;12.542;2023-07-29T13:53:02;30.00;1.00
1476;DHT22;730;48.870;12.542;2023-07-29T13:55:28;29.80;1.00
1476;DHT22;730;48.870;12.542;2023-07-29T13:57:54;29.70;1.00
1476;DHT22;730;48.870;12.542;2023-07-29T14:00:24;29.60;1.00
1476;DHT22;730;48.870;12.542;2023-07-29T14:02:53;29.50;1.00
1476;DHT22;730;48.870;12.542;2023-07-29T14:05:20;29.40;1.00
1476;DHT22;730;48.870;12.542;2023-07-29T14:07:46;29.40;1.00
1476;DHT22;730;48.870;12.542;2023-07-29T14:10:12;29.40;1.00
1476;DHT22;730;48.870;12.542;2023-07-29T14:12:38;29.40;1.00
1476;DHT22;730;48.870;12.542;2023-07-29T14:15:05;29.60;1.00
1476;DHT22;730;48.870;12.542;2023-07-29T14:17:36;29.90;1.00
1476;DHT22;730;48.870;12.542;2023-07-29T14:20:02;30.40;1.00
1476;DHT22;730;48.870;12.542;2023-07-29T14:22:30;30.80;1.00
1476;DHT22;730;48.870;12.542;2023-07-29T14:24:56;30.90;1.00
1476;DHT22;730;48.870;12.542;2023-07-29T14:27:22;31.50;1.00
1476;DHT22;730;48.870;12.542;2023-07-29T14:29:49;31.90;1.00
1476;DHT22;730;48.870;12.542;2023-07-29T14:32:15;31.90;1.00
1476;DHT22;730;48.870;12.542;2023-07-29T14:34:41;31.80;1.00
1476;DHT22;730;48.870;12.542;2023-07-29T14:37:07;31.60;1.00
1476;DHT22;730;48.870;12.542;2023-07-29T14:39:33;31.30;1.00
1476;DHT22;730;48.870;12.542;2023-07-29T14:41:59;31.10;1.00
1476;DHT22;730;48.870;12.542;2023-07-29T14:44:25;30.90;1.00
1476;DHT22;730;48.870;12.542;2023-07-29T14:46:51;30.80;1.00
1476;DHT22;730;48.870;12.542;2023-07-29T14:49:17;30.30;1.00
1476;DHT22;730;48.870;12.542;2023-07-29T14:51:43;29.90;1.00
1476;DHT22;730;48.870;12.542;2023-07-29T14:54:09;29.50;1.00
1476;DHT22;730;48.870;12.542;2023-07-29T14:56:35;29.10;1.00
1476;DHT22;730;48.870;12.542;2023-07-29T14:59:01;28.70;1.00
1476;DHT22;730;48.870;12.542;2023-07-29T15:01:28;28.70;1.00
1476;DHT22;730;48.870;12.542;2023-07-29T15:03:54;28.60;1.00
1476;DHT22;730;48.870;12.542;2023-07-29T15:06:20;28.60;1.00
1476;DHT22;730;48.870;12.542;2023-07-29T15:08:46;28.50;1.00
1476;DHT22;730;48.870;12.542;2023-07-29T15:11:13;28.40;1.00
1476;DHT22;730;48.870;12.542;2023-07-29T15:13:39;28.30;1.00
1476;DHT22;730;48.870;12.542;2023-07-29T15:16:05;28.30;1.00
1476;DHT22;730;48.870;12.542;2023-07-29T15:18:31;28.30;1.00
1476;DHT22;730;48.870;12.542;2023-07-29T15:20:59;28.30;1.00
1476;DHT22;730;48.870;12.542;2023-07-29T15:23:28;28.30;1.00
1476;DHT22;730;48.870;12.542;2023-07-29T15:25:55;28.40;1.00
1476;DHT22;730;48.870;12.542;2023-07-29T15:28:21;28.40;1.00
1476;DHT22;730;48.870;12.542;2023-07-29T15:30:47;28.40;1.00
1476;DHT22;730;48.870;12.542;2023-07-29T15:33:13;28.50;1.00
1476;DHT22;730;48.870;12.542;2023-07-29T15:35:39;28.40;1.00
1476;DHT22;730;48.870;12.542;2023-07-29T15:38:06;28.30;1.00
1476;DHT22;730;48.870;12.542;2023-07-29T15:40:32;28.30;1.00
1476;DHT22;730;48.870;12.542;2023-07-29T15:42:59;28.20;1.00
1476;DHT22;730;48.870;12.542;2023-07-29T15:45:25;28.00;1.00
1476;DHT22;730;48.870;12.542;2023-07-29T15:47:51;28.00;1.00
1476;DHT22;730;48.870;12.542;2023-07-29T15:50:17;28.00;1.00
1476;DHT22;730;48.870;12.542;2023-07-29T15:52:43;27.80;1.00
1476;DHT22;730;48.870;12.542;2023-07-29T15:55:10;27.70;1.00
1476;DHT22;730;48.870;12.542;2023-07-29T15:57:36;27.60;1.00
1476;DHT22;730;48.870;12.542;2023-07-29T16:00:04;27.60;1.00
1476;DHT22;730;48.870;12.542;2023-07-29T16:02:30;27.30;1.00
1476;DHT22;730;48.870;12.542;2023-07-29T16:04:56;27.10;1.00
1476;DHT22;730;48.870;12.542;2023-07-29T16:07:22;26.70;1.00
1476;DHT22;730;48.870;12.542;2023-07-29T16:09:48;26.40;1.00
1476;DHT22;730;48.870;12.542;2023-07-29T16:12:15;26.30;1.00
1476;DHT22;730;48.870;12.542;2023-07-29T16:14:41;26.20;1.00
1476;DHT22;730;48.870;12.542;2023-07-29T16:17:07;26.10;1.00
1476;DHT22;730;48.870;12.542;2023-07-29T16:19:58;26.10;1.00
1476;DHT22;730;48.870;12.542;2023-07-29T16:22:25;26.10;1.00
1476;DHT22;730;48.870;12.542;2023-07-29T16:24:51;26.20;1.00
1476;DHT22;730;48.870;12.542;2023-07-29T16:27:18;26.20;1.00
1476;DHT22;730;48.870;12.542;2023-07-29T16:29:44;26.20;1.00
1476;DHT22;730;48.870;12.542;2023-07-29T16:32:10;26.00;1.00
1476;DHT22;730;48.870;12.542;2023-07-29T16:34:37;26.00;1.00
1476;DHT22;730;48.870;12.542;2023-07-29T16:37:05;26.00;1.00